createdAt,value
2023-05-14T00:01:41.621Z,102467.88
2023-05-14T00:04:28.429Z,102473.97
2023-05-14T00:07:15.271Z,102467.00
2023-05-14T00:10:02.132Z,102465.28
2023-05-14T00:12:51.382Z,102455.75
2023-05-14T00:15:38.246Z,102460.94
2023-05-14T00:18:25.110Z,102454.03
2023-05-14T00:21:11.991Z,102445.34
2023-05-14T00:23:58.885Z,102445.38
2023-05-14T00:26:45.689Z,102438.47
2023-05-14T00:29:32.486Z,102441.06
2023-05-14T00:32:19.296Z,102434.97
2023-05-14T00:35:06.496Z,102428.94
2023-05-14T00:37:53.297Z,102427.13
2023-05-14T00:40:40.313Z,102426.25
2023-05-14T00:43:27.304Z,102423.66
2023-05-14T00:46:14.814Z,102427.03
2023-05-14T00:49:01.797Z,102420.03
2023-05-14T00:51:48.916Z,102417.44
2023-05-14T00:54:36.401Z,102410.38
2023-05-14T00:57:23.289Z,102410.50
2023-05-14T01:00:10.799Z,102401.75
2023-05-14T01:02:58.139Z,102408.66
2023-05-14T01:05:48.054Z,102401.72
2023-05-14T01:08:41.008Z,102406.06
2023-05-14T01:11:42.533Z,102398.13
2023-05-14T01:14:29.347Z,102410.38
2023-05-14T01:17:16.476Z,102413.84
2023-05-14T01:20:03.748Z,102414.69
2023-05-14T01:22:50.546Z,102412.97
2023-05-14T01:25:37.502Z,102406.06
2023-05-14T01:28:32.537Z,102390.22
2023-05-14T01:31:22.528Z,102398.19
2023-05-14T01:34:12.562Z,102382.44
2023-05-14T01:37:01.820Z,102389.50
2023-05-14T01:39:50.715Z,102389.50
2023-05-14T01:42:38.407Z,102386.88
2023-05-14T01:45:25.417Z,102385.91
2023-05-14T01:48:12.517Z,102381.56
2023-05-14T01:50:59.438Z,102377.97
2023-05-14T01:53:46.239Z,102379.66
2023-05-14T01:56:33.047Z,102377.81
2023-05-14T01:59:19.895Z,102375.09
2023-05-14T02:02:06.946Z,102368.25
2023-05-14T02:04:53.816Z,102371.75
2023-05-14T02:07:40.719Z,102370.06
2023-05-14T02:10:28.947Z,102365.75
2023-05-14T02:13:16.535Z,102363.16
2023-05-14T02:16:03.838Z,102362.28
2023-05-14T02:18:50.755Z,102364.06
2023-05-14T02:21:37.513Z,102359.75
2023-05-14T02:24:24.533Z,102356.28
2023-05-14T02:27:11.336Z,102357.16
2023-05-14T02:29:58.244Z,102353.72
2023-05-14T02:32:45.141Z,102359.78
2023-05-14T02:35:32.037Z,102351.97
2023-05-14T02:38:20.267Z,102344.16
2023-05-14T02:41:07.115Z,102351.09
2023-05-14T02:43:54.414Z,102345.84
2023-05-14T02:46:41.484Z,102353.69
2023-05-14T02:49:28.299Z,102343.28
2023-05-14T02:52:15.147Z,102345.03
2023-05-14T02:55:02.569Z,102338.97
2023-05-14T02:57:49.376Z,102338.09
2023-05-14T03:00:36.223Z,102331.16
2023-05-14T03:03:24.008Z,102335.50
2023-05-14T03:06:11.318Z,102330.31
2023-05-14T03:08:58.152Z,102328.50
2023-05-14T03:11:45.135Z,102328.56
2023-05-14T03:14:31.949Z,102330.22
2023-05-14T03:17:18.787Z,102332.81
2023-05-14T03:20:06.308Z,102331.06
2023-05-14T03:22:53.335Z,102331.91
2023-05-14T03:25:40.199Z,102337.94
2023-05-14T03:28:26.960Z,102333.63
2023-05-14T03:31:13.927Z,102340.53
2023-05-14T03:34:00.795Z,102336.19
2023-05-14T03:36:47.694Z,102337.88
2023-05-14T03:39:34.678Z,102331.81
2023-05-14T03:42:24.594Z,102329.19
2023-05-14T03:45:11.622Z,102332.59
2023-05-14T03:47:58.499Z,102328.09
2023-05-14T03:50:46.519Z,102326.28
2023-05-14T03:53:33.644Z,102315.94
2023-05-14T03:56:20.421Z,102320.22
2023-05-14T03:59:07.233Z,102323.59
2023-05-14T04:01:54.089Z,102314.16
2023-05-14T04:04:40.943Z,102321.06
2023-05-14T04:07:27.773Z,102317.59
2023-05-14T04:10:14.573Z,102303.81
2023-05-14T04:13:01.413Z,102306.41
2023-05-14T04:15:52.511Z,102308.97
2023-05-14T04:18:39.397Z,102315.94
2023-05-14T04:21:26.306Z,102314.16
2023-05-14T04:24:13.066Z,102308.97
2023-05-14T04:26:59.938Z,102307.19
2023-05-14T04:29:47.153Z,102302.81
2023-05-14T04:32:33.960Z,102302.78
2023-05-14T04:35:23.354Z,102296.72
2023-05-14T04:38:11.562Z,102294.97
2023-05-14T04:40:58.389Z,102288.03
2023-05-14T04:43:45.161Z,102289.78
2023-05-14T04:46:32.044Z,102289.78
2023-05-14T04:49:18.953Z,102283.72
2023-05-14T04:52:06.750Z,102288.03
2023-05-14T04:54:53.588Z,102286.31
2023-05-14T04:57:40.349Z,102281.13
2023-05-14T05:00:27.377Z,102285.38
2023-05-14T05:03:14.368Z,102283.66
2023-05-14T05:06:01.314Z,102279.38
2023-05-14T05:08:48.084Z,102280.16
2023-05-14T05:11:34.863Z,102278.38
2023-05-14T05:14:21.663Z,102280.09
2023-05-14T05:17:08.473Z,102276.53
2023-05-14T05:19:55.249Z,102279.22
2023-05-14T05:22:42.076Z,102273.09
2023-05-14T05:25:28.855Z,102276.53
2023-05-14T05:28:15.738Z,102275.59
2023-05-14T05:31:02.588Z,102266.94
2023-05-14T05:33:49.509Z,102262.59
2023-05-14T05:36:36.280Z,102260.94
2023-05-14T05:39:23.122Z,102257.50
2023-05-14T05:42:10.146Z,102266.16
2023-05-14T05:44:56.912Z,102267.97
2023-05-14T05:47:43.766Z,102267.19
2023-05-14T05:50:30.717Z,102256.94
2023-05-14T05:53:17.492Z,102250.97
2023-05-14T05:56:04.489Z,102250.19
2023-05-14T05:58:51.321Z,102247.63
2023-05-14T06:01:38.151Z,102253.78
2023-05-14T06:04:25.001Z,102248.66
2023-05-14T06:07:11.737Z,102253.91
2023-05-14T06:09:58.502Z,102257.44
2023-05-14T06:12:45.414Z,102260.97
2023-05-14T06:15:32.212Z,102251.56
2023-05-14T06:18:19.094Z,102251.63
2023-05-14T06:21:06.017Z,102254.34
2023-05-14T06:23:52.858Z,102249.22
2023-05-14T06:26:39.614Z,102243.25
2023-05-14T06:29:26.413Z,102230.38
2023-05-14T06:32:13.274Z,102232.22
2023-05-14T06:35:00.168Z,102233.16
2023-05-14T06:37:46.989Z,102230.47
2023-05-14T06:40:33.801Z,102220.19
2023-05-14T06:43:20.667Z,102230.66
2023-05-14T06:46:07.480Z,102222.91
2023-05-14T06:48:54.326Z,102228.19
2023-05-14T06:51:41.378Z,102229.09
2023-05-14T06:54:28.150Z,102230.03
2023-05-14T06:57:14.943Z,102234.41
2023-05-14T07:00:03.668Z,102233.59
2023-05-14T07:02:50.788Z,102232.66
2023-05-14T07:05:37.648Z,102227.56
2023-05-14T07:08:24.531Z,102239.69
2023-05-14T07:11:11.849Z,102232.78
2023-05-14T07:13:58.926Z,102228.56
2023-05-14T07:16:45.816Z,102225.22
2023-05-14T07:19:32.632Z,102224.38
2023-05-14T07:22:19.436Z,102227.03
2023-05-14T07:25:06.608Z,102231.31
2023-05-14T07:27:53.401Z,102232.22
2023-05-14T07:30:40.534Z,102231.38
2023-05-14T07:33:27.304Z,102233.22
2023-05-14T07:36:14.358Z,102235.06
2023-05-14T07:39:01.192Z,102225.63
2023-05-14T07:41:48.008Z,102224.03
2023-05-14T07:44:34.777Z,102221.59
2023-05-14T07:47:21.770Z,102212.22
2023-05-14T07:50:09.173Z,102217.47
2023-05-14T07:52:55.980Z,102218.44
2023-05-14T07:55:42.772Z,102216.81
2023-05-14T07:58:29.576Z,102217.75
2023-05-14T08:01:16.385Z,102212.66
2023-05-14T08:04:03.366Z,102212.72
2023-05-14T08:06:50.309Z,102213.59
2023-05-14T08:09:37.263Z,102211.09
2023-05-14T08:12:24.082Z,102212.94
2023-05-14T08:15:12.238Z,102212.19
2023-05-14T08:17:59.091Z,102216.69
2023-05-14T08:20:45.999Z,102216.75
2023-05-14T08:23:32.805Z,102222.06
2023-05-14T08:26:19.595Z,102211.66
2023-05-14T08:29:07.169Z,102205.59
2023-05-14T08:31:55.116Z,102204.81
2023-05-14T08:34:43.923Z,102205.72
2023-05-14T08:37:30.880Z,102203.97
2023-05-14T08:40:18.074Z,102202.31
2023-05-14T08:43:06.698Z,102195.38
2023-05-14T08:45:58.473Z,102187.69
2023-05-14T08:48:47.434Z,102200.91
2023-05-14T08:51:35.625Z,102183.63
2023-05-14T08:54:23.162Z,102195.94
2023-05-14T08:57:10.997Z,102192.53
2023-05-14T08:59:58.288Z,102196.13
2023-05-14T09:02:46.442Z,102195.34
2023-05-14T09:05:33.585Z,102194.66
2023-05-14T09:08:20.666Z,102190.38
2023-05-14T09:11:07.430Z,102191.38
2023-05-14T09:13:54.225Z,102189.75
2023-05-14T09:16:44.619Z,102181.22
2023-05-14T09:19:31.586Z,102181.28
2023-05-14T09:22:19.001Z,102180.44
2023-05-14T09:25:08.739Z,102184.81
2023-05-14T09:27:58.676Z,102177.94
2023-05-14T09:30:51.865Z,102181.53
2023-05-14T09:33:38.662Z,102185.13
2023-05-14T09:36:26.582Z,102187.81
2023-05-14T09:39:13.362Z,102181.75
2023-05-14T09:42:00.316Z,102185.31
2023-05-14T09:44:47.243Z,102174.97
2023-05-14T09:47:34.177Z,102176.72
2023-05-14T09:50:21.342Z,102175.06
2023-05-14T09:53:08.305Z,102169.88
2023-05-14T09:55:55.104Z,102185.63
2023-05-14T09:58:41.934Z,102184.78
2023-05-14T10:01:30.227Z,102179.63
2023-05-14T10:04:17.817Z,102177.09
2023-05-14T10:07:04.883Z,102178.94
2023-05-14T10:09:59.365Z,102164.09
2023-05-14T10:12:57.489Z,102182.44
2023-05-14T10:15:51.725Z,102164.16
2023-05-14T10:18:45.904Z,102169.41
2023-05-14T10:21:35.726Z,102151.13
2023-05-14T10:24:23.328Z,102169.44
2023-05-14T10:27:10.318Z,102165.91
2023-05-14T10:29:57.530Z,102168.53
2023-05-14T10:32:44.481Z,102158.03
2023-05-14T10:35:50.183Z,102162.41
2023-05-14T10:38:37.976Z,102158.88
2023-05-14T10:41:24.882Z,102158.00
2023-05-14T10:44:12.034Z,102155.31
2023-05-14T10:46:59.228Z,102149.22
2023-05-14T10:49:47.250Z,102145.66
2023-05-14T10:52:34.080Z,102153.47
2023-05-14T10:55:21.797Z,102155.13
2023-05-14T10:58:12.837Z,102138.50
2023-05-14T11:01:00.529Z,102139.19
2023-05-14T11:03:47.377Z,102138.19
2023-05-14T11:06:35.596Z,102143.38
2023-05-14T11:09:23.902Z,102136.28
2023-05-14T11:12:10.782Z,102137.69
2023-05-14T11:14:59.082Z,102129.31
2023-05-14T11:17:47.203Z,102122.41
2023-05-14T11:20:35.813Z,102122.63
2023-05-14T11:23:24.010Z,102125.38
2023-05-14T11:26:11.303Z,102117.78
2023-05-14T11:28:58.191Z,102110.38
2023-05-14T11:31:45.020Z,102110.72
2023-05-14T11:34:32.303Z,102106.50
2023-05-14T11:37:19.656Z,102105.88
2023-05-14T11:40:14.837Z,102098.94
2023-05-14T11:43:01.775Z,102092.28
2023-05-14T11:45:52.820Z,102091.69
2023-05-14T11:48:39.670Z,102081.63
2023-05-14T11:51:26.485Z,102083.03
2023-05-14T11:54:14.218Z,102079.34
2023-05-14T11:57:03.586Z,102067.28
2023-05-14T11:59:55.990Z,102072.28
2023-05-14T12:02:42.861Z,102069.88
2023-05-14T12:05:29.820Z,102059.69
2023-05-14T12:08:26.279Z,102052.84
2023-05-14T12:11:13.090Z,102065.31
2023-05-14T12:13:59.919Z,102063.16
2023-05-14T12:16:47.637Z,102049.81
2023-05-14T12:19:39.906Z,102044.47
2023-05-14T12:22:29.366Z,102047.59
2023-05-14T12:25:16.270Z,102041.16
2023-05-14T12:28:14.156Z,102019.88
2023-05-14T12:31:01.036Z,102020.09
2023-05-14T12:33:47.831Z,102023.75
2023-05-14T12:36:34.638Z,102020.50
2023-05-14T12:39:21.476Z,102012.78
2023-05-14T12:42:08.264Z,102016.34
2023-05-14T12:44:55.064Z,102013.66
2023-05-14T12:47:41.886Z,102011.00
2023-05-14T12:50:29.379Z,102010.09
2023-05-14T12:53:16.160Z,102010.16
2023-05-14T12:56:03.023Z,102005.00
2023-05-14T12:58:49.836Z,101997.41
2023-05-14T13:01:36.674Z,101996.88
2023-05-14T13:04:23.540Z,101992.59
2023-05-14T13:07:10.554Z,101995.06
2023-05-14T13:09:57.383Z,101987.88
2023-05-14T13:12:44.302Z,101981.56
2023-05-14T13:15:31.101Z,101976.19
2023-05-14T13:18:18.067Z,101970.75
2023-05-14T13:21:04.862Z,101968.75
2023-05-14T13:23:51.678Z,101957.91
2023-05-14T13:26:38.649Z,101954.81
2023-05-14T13:29:25.466Z,101951.59
2023-05-14T13:32:12.232Z,101951.91
2023-05-14T13:34:59.004Z,101955.75
2023-05-14T13:37:47.374Z,101951.25
2023-05-14T13:40:34.138Z,101939.59
2023-05-14T13:43:20.912Z,101933.81
2023-05-14T13:46:07.814Z,101939.38
2023-05-14T13:48:54.634Z,101940.13
2023-05-14T13:51:41.441Z,101926.78
2023-05-14T13:54:28.237Z,101928.53
2023-05-14T13:57:15.444Z,101924.03
2023-05-14T14:00:02.264Z,101930.34
2023-05-14T14:02:50.947Z,101920.03
2023-05-14T14:05:37.861Z,101911.25
2023-05-14T14:08:24.855Z,101912.13
2023-05-14T14:11:11.666Z,101897.94
2023-05-14T14:13:58.477Z,101884.50
2023-05-14T14:16:45.323Z,101872.22
2023-05-14T14:19:32.122Z,101869.97
2023-05-14T14:22:18.981Z,101874.75
2023-05-14T14:25:06.233Z,101867.16
2023-05-14T14:27:53.046Z,101864.72
2023-05-14T14:30:39.880Z,101869.63
2023-05-14T14:36:13.370Z,101878.94
2023-05-14T14:39:00.185Z,101879.13
2023-05-14T14:41:46.991Z,101881.16
2023-05-14T14:44:33.758Z,101872.22
2023-05-14T14:47:20.539Z,101881.72
2023-05-14T14:50:08.055Z,101881.41
2023-05-14T14:52:54.854Z,101867.94
2023-05-14T14:55:41.634Z,101873.22
2023-05-14T14:58:28.639Z,101872.28
2023-05-14T15:01:15.520Z,101859.16
2023-05-14T15:04:02.471Z,101850.38
2023-05-14T15:06:49.241Z,101845.06
2023-05-14T15:09:36.130Z,101863.47
2023-05-14T15:12:22.947Z,101843.38
2023-05-14T15:15:10.062Z,101847.63
2023-05-14T15:17:57.156Z,101844.03
2023-05-14T15:20:44.481Z,101836.19
2023-05-14T15:23:31.266Z,101828.34
2023-05-14T15:26:18.101Z,101833.94
2023-05-14T15:29:05.049Z,101836.72
2023-05-14T15:31:51.887Z,101830.47
2023-05-14T15:34:38.737Z,101830.72
2023-05-14T15:37:26.177Z,101833.97
2023-05-14T15:40:13.280Z,101829.50
2023-05-14T15:43:00.150Z,101830.50
2023-05-14T15:45:46.973Z,101814.28
2023-05-14T15:48:33.815Z,101819.94
2023-05-14T15:51:20.684Z,101806.84
2023-05-14T15:54:07.665Z,101813.25
2023-05-14T15:56:55.500Z,101808.78
2023-05-14T15:59:42.358Z,101800.88
2023-05-14T16:02:29.196Z,101800.34
2023-05-14T16:05:16.038Z,101796.00
2023-05-14T16:08:03.222Z,101791.91
2023-05-14T16:10:50.022Z,101793.41
2023-05-14T16:13:36.827Z,101787.81
2023-05-14T16:16:23.657Z,101775.97
2023-05-14T16:19:10.554Z,101776.97
2023-05-14T16:21:57.463Z,101774.63
2023-05-14T16:24:44.272Z,101769.16
2023-05-14T16:27:31.194Z,101774.88
2023-05-14T16:30:18.287Z,101773.66
2023-05-14T16:33:05.177Z,101767.44
2023-05-14T16:35:52.342Z,101760.81
2023-05-14T16:38:48.183Z,101758.19
2023-05-14T16:41:43.884Z,101753.97
2023-05-14T16:44:30.643Z,101755.19
2023-05-14T16:47:17.409Z,101754.56
2023-05-14T16:50:04.382Z,101748.38
2023-05-14T16:52:51.289Z,101750.59
2023-05-14T16:55:38.096Z,101749.19
2023-05-14T16:58:24.881Z,101748.03
2023-05-14T17:01:11.715Z,101733.00
2023-05-14T17:03:58.648Z,101737.41
2023-05-14T17:06:46.444Z,101730.63
2023-05-14T17:09:33.372Z,101725.41
2023-05-14T17:12:20.409Z,101717.53
2023-05-14T17:15:07.798Z,101728.69
2023-05-14T17:17:55.627Z,101725.22
2023-05-14T17:20:42.516Z,101721.91
2023-05-14T17:23:29.333Z,101723.06
2023-05-14T17:26:16.193Z,101715.44
2023-05-14T17:29:03.278Z,101715.41
2023-05-14T17:31:50.265Z,101716.06
2023-05-14T17:34:37.170Z,101710.28
2023-05-14T17:37:24.678Z,101700.09
2023-05-14T17:40:12.748Z,101706.97
2023-05-14T17:42:59.551Z,101698.13
2023-05-14T17:45:53.804Z,101701.50
2023-05-14T17:48:41.460Z,101698.06
2023-05-14T17:51:28.326Z,101707.75
2023-05-14T17:54:15.129Z,101706.16
2023-05-14T17:57:01.999Z,101693.69
2023-05-14T17:59:48.798Z,101701.28
2023-05-14T18:02:35.609Z,101698.44
2023-05-14T18:05:22.645Z,101690.25
2023-05-14T18:08:09.650Z,101691.69
2023-05-14T18:10:56.447Z,101694.81
2023-05-14T18:13:43.237Z,101694.44
2023-05-14T18:16:30.766Z,101694.75
2023-05-14T18:19:17.614Z,101701.31
2023-05-14T18:22:04.537Z,101706.03
2023-05-14T18:24:51.359Z,101699.44
2023-05-14T18:27:38.302Z,101707.53
2023-05-14T18:30:25.095Z,101699.97
2023-05-14T18:33:12.004Z,101695.78
2023-05-14T18:35:58.978Z,101692.53
2023-05-14T18:38:45.768Z,101695.50
2023-05-14T18:41:32.584Z,101697.47
2023-05-14T18:44:19.361Z,101693.28
2023-05-14T18:47:06.480Z,101699.66
2023-05-14T18:49:53.269Z,101696.38
2023-05-14T18:52:40.076Z,101695.72
2023-05-14T18:55:27.231Z,101695.97
2023-05-14T18:58:14.178Z,101690.97
2023-05-14T19:01:01.668Z,101686.88
2023-05-14T19:03:48.508Z,101680.16
2023-05-14T19:06:35.386Z,101683.88
2023-05-14T19:09:22.279Z,101685.91
2023-05-14T19:12:09.105Z,101683.63
2023-05-14T19:14:55.958Z,101687.41
2023-05-14T19:17:42.888Z,101687.69
2023-05-14T19:20:29.682Z,101689.72
2023-05-14T19:23:16.441Z,101689.03
2023-05-14T19:26:03.325Z,101687.53
2023-05-14T19:28:50.356Z,101695.53
2023-05-14T19:31:37.182Z,101695.69
2023-05-14T19:34:24.017Z,101697.63
2023-05-14T19:37:10.911Z,101695.97
2023-05-14T19:39:57.684Z,101696.13
2023-05-14T19:42:44.470Z,101697.97
2023-05-14T19:45:31.305Z,101703.28
2023-05-14T19:48:18.097Z,101696.41
2023-05-14T19:51:04.935Z,101697.34
2023-05-14T19:53:51.768Z,101689.63
2023-05-14T19:56:38.602Z,101695.00
2023-05-14T19:59:25.461Z,101699.41
2023-05-14T20:02:12.378Z,101693.31
2023-05-14T20:04:59.189Z,101692.53
2023-05-14T20:07:46.011Z,101688.25
2023-05-14T20:10:32.871Z,101695.28
2023-05-14T20:13:19.689Z,101693.63
2023-05-14T20:16:06.551Z,101697.25
2023-05-14T20:18:53.723Z,101692.94
2023-05-14T20:21:40.612Z,101692.97
2023-05-14T20:24:28.492Z,101680.06
2023-05-14T20:27:15.316Z,101694.88
2023-05-14T20:30:02.207Z,101691.41
2023-05-14T20:32:49.025Z,101690.66
2023-05-14T20:35:35.853Z,101695.13
2023-05-14T20:38:22.822Z,101688.25
2023-05-14T20:41:09.587Z,101684.97
2023-05-14T20:43:56.369Z,101694.59
2023-05-14T20:46:43.229Z,101679.81
2023-05-14T20:49:30.123Z,101685.13
2023-05-14T20:52:18.188Z,101686.09
2023-05-14T20:55:05.572Z,101687.06
2023-05-14T20:57:52.367Z,101685.44
2023-05-14T21:00:39.154Z,101692.53
2023-05-14T21:03:26.039Z,101690.88
2023-05-14T21:06:12.980Z,101685.72
2023-05-14T21:08:59.764Z,101684.94
2023-05-14T21:11:46.803Z,101682.44
2023-05-14T21:14:33.601Z,101683.41
2023-05-14T21:17:20.497Z,101685.22
2023-05-14T21:20:07.875Z,101680.09
2023-05-14T21:22:54.711Z,101681.00
2023-05-14T21:25:41.642Z,101681.09
2023-05-14T21:28:28.489Z,101679.41
2023-05-14T21:31:15.314Z,101680.31
2023-05-14T21:34:02.105Z,101690.88
2023-05-14T21:36:49.014Z,101681.31
2023-05-14T21:39:35.819Z,101698.81
2023-05-14T21:42:22.627Z,101697.16
2023-05-14T21:45:09.849Z,101694.56
2023-05-14T21:47:56.793Z,101703.34
2023-05-14T21:50:43.709Z,101701.66
2023-05-14T21:53:30.476Z,101702.59
2023-05-14T21:56:17.267Z,101698.28
2023-05-14T21:59:04.123Z,101698.31
2023-05-14T22:02:06.094Z,101693.09
2023-05-14T22:04:53.912Z,101701.88
2023-05-14T22:07:40.792Z,101694.03
2023-05-14T22:10:27.633Z,101698.47
2023-05-14T22:13:14.402Z,101694.16
2023-05-14T22:16:12.094Z,101701.16
2023-05-14T22:19:00.065Z,101698.59
2023-05-14T22:21:46.964Z,101701.19
2023-05-14T22:24:33.749Z,101702.16
2023-05-14T22:27:20.542Z,101696.06
2023-05-14T22:30:08.013Z,101694.41
2023-05-14T22:32:55.063Z,101700.50
2023-05-14T22:35:41.987Z,101701.44
2023-05-14T22:38:28.809Z,101700.66
2023-05-14T22:41:15.610Z,101703.28
2023-05-14T22:44:02.421Z,101704.19
2023-05-14T22:46:49.774Z,101705.09
2023-05-14T22:49:36.691Z,101700.78
2023-05-14T22:52:23.474Z,101700.81
2023-05-14T22:55:10.272Z,101695.59
2023-05-14T22:57:57.121Z,101693.88
2023-05-14T23:00:43.959Z,101691.31
2023-05-14T23:03:30.813Z,101687.84
2023-05-14T23:06:17.847Z,101693.97
2023-05-14T23:09:04.710Z,101700.13
2023-05-14T23:11:51.529Z,101692.34
2023-05-14T23:14:38.330Z,101698.44
2023-05-14T23:17:25.314Z,101688.91
2023-05-14T23:20:12.313Z,101694.19
2023-05-14T23:22:59.121Z,101698.56
2023-05-14T23:25:45.933Z,101709.94
2023-05-14T23:28:32.772Z,101701.25
2023-05-14T23:31:19.614Z,101703.03
2023-05-14T23:34:06.624Z,101690.94
2023-05-14T23:36:53.712Z,101706.59
2023-05-14T23:39:40.651Z,101701.41
2023-05-14T23:42:27.457Z,101706.66
2023-05-14T23:45:14.318Z,101706.69
2023-05-14T23:48:01.738Z,101706.75
2023-05-14T23:50:48.583Z,101711.94
2023-05-14T23:53:35.458Z,101714.63
2023-05-14T23:56:23.167Z,101718.97
2023-05-14T23:59:10.131Z,101710.31
